Time;durP1;ratioP1;P1;durP2;ratioP2;P2;SDS_P1;SDS_P2;PMS_P1;PMS_P2;Temp;Humidity;BMP_temperature;BMP_pressure;BME280_temperature;BME280_humidity;BME280_pressure;Samples;Min_cycle;Max_cycle;Signal;HPM_P1;HPM_P2
2023/04/08 00:01:12;;;;;;;18.02;12.43;;;;;;;;;;5117617;28;20266;-85
2023/04/08 00:03:38;;;;;;;21.50;11.70;;;;;;;;;;5117442;28;20231;-86
2023/04/08 00:06:04;;;;;;;18.37;13.40;;;;;;;;;;5118190;28;20167;-85
2023/04/08 00:08:30;;;;;;;17.27;11.40;;;;;;;;;;5099873;28;20752;-85
2023/04/08 00:10:56;;;;;;;20.80;13.65;;;;;;;;;;5099645;28;20413;-85
2023/04/08 00:13:22;;;;;;;16.90;13.10;;;;;;;;;;5099710;28;20627;-86
2023/04/08 00:15:48;;;;;;;21.90;13.80;;;;;;;;;;5117503;28;20433;-83
2023/04/08 00:18:14;;;;;;;19.73;13.77;;;;;;;;;;5117803;28;20405;-86
2023/04/08 00:20:40;;;;;;;23.10;14.02;;;;;;;;;;5117931;28;20187;-85
2023/04/08 00:23:06;;;;;;;26.40;14.20;;;;;;;;;;5099686;28;20171;-85
2023/04/08 00:25:32;;;;;;;22.90;14.57;;;;;;;;;;5099758;28;20405;-85
2023/04/08 00:27:58;;;;;;;26.63;14.37;;;;;;;;;;5117544;28;20401;-85
2023/04/08 00:30:26;;;;;;;25.30;15.30;;;;;;;;;;5099496;28;20504;-84
2023/04/08 00:32:53;;;;;;;31.25;15.15;;;;;;;;;;5099370;28;20505;-85
2023/04/08 00:35:19;;;;;;;22.10;15.10;;;;;;;;;;5099983;28;20172;-85
2023/04/08 00:37:45;;;;;;;20.05;14.07;;;;;;;;;;5099608;28;20175;-86
2023/04/08 00:40:11;;;;;;;25.20;16.80;;;;;;;;;;5082593;28;20187;-86
2023/04/08 00:42:37;;;;;;;26.33;15.52;;;;;;;;;;5120987;28;20389;-86
2023/04/08 00:45:04;;;;;;;22.83;15.80;;;;;;;;;;5122797;28;20561;-85
2023/04/08 00:47:30;;;;;;;24.25;15.77;;;;;;;;;;5101178;28;20266;-86
2023/04/08 00:49:56;;;;;;;30.30;16.63;;;;;;;;;;5101890;28;20181;-86
2023/04/08 00:52:22;;;;;;;26.30;16.65;;;;;;;;;;5084146;28;20175;-86
2023/04/08 00:54:48;;;;;;;27.83;16.13;;;;;;;;;;5100226;28;20539;-86
2023/04/08 00:57:14;;;;;;;27.27;15.68;;;;;;;;;;5118636;28;20172;-86
2023/04/08 00:59:40;;;;;;;26.55;15.05;;;;;;;;;;5118695;28;20224;-87
2023/04/08 01:02:13;;;;;;;23.85;15.88;;;;;;;;;;5118754;28;20501;-85
2023/04/08 01:04:42;;;;;;;22.55;15.90;;;;;;;;;;5099648;28;20263;-86
2023/04/08 01:07:12;;;;;;;31.42;17.30;;;;;;;;;;5100059;28;20262;-86
2023/04/08 01:09:39;;;;;;;29.98;15.75;;;;;;;;;;5098763;28;20171;-86
2023/04/08 01:12:07;;;;;;;27.60;17.25;;;;;;;;;;5098909;28;20176;-86
2023/04/08 01:14:35;;;;;;;29.75;17.35;;;;;;;;;;5116696;28;20176;-85
2023/04/08 01:17:01;;;;;;;25.30;17.60;;;;;;;;;;5098402;28;20199;-86
2023/04/08 01:19:30;;;;;;;29.33;18.42;;;;;;;;;;5098301;28;20281;-87
2023/04/08 01:22:01;;;;;;;29.67;17.75;;;;;;;;;;5117562;28;20168;-86
2023/04/08 01:24:29;;;;;;;31.42;16.80;;;;;;;;;;5098509;28;20211;-87
2023/04/08 01:26:58;;;;;;;31.58;19.15;;;;;;;;;;5116840;28;20164;-86
2023/04/08 01:29:24;;;;;;;28.63;18.27;;;;;;;;;;5116608;28;20175;-86
2023/04/08 01:31:51;;;;;;;32.50;19.98;;;;;;;;;;5098515;28;20564;-87
2023/04/08 01:34:18;;;;;;;27.65;17.73;;;;;;;;;;5080825;28;20193;-86
2023/04/08 01:36:46;;;;;;;33.67;19.83;;;;;;;;;;5116101;28;20191;-87
2023/04/08 01:39:13;;;;;;;34.42;19.15;;;;;;;;;;5097658;28;20650;-87
2023/04/08 01:41:39;;;;;;;36.45;22.38;;;;;;;;;;5098229;28;20174;-87
2023/04/08 01:44:05;;;;;;;34.95;19.55;;;;;;;;;;5115981;28;20667;-86
2023/04/08 01:46:32;;;;;;;29.00;20.23;;;;;;;;;;5098440;28;20206;-86
2023/04/08 01:48:59;;;;;;;31.17;20.27;;;;;;;;;;5097658;28;20168;-88
2023/04/08 01:51:25;;;;;;;33.78;19.33;;;;;;;;;;5116514;28;20176;-86
2023/04/08 01:53:52;;;;;;;33.05;19.33;;;;;;;;;;5115806;28;20175;-87
2023/04/08 01:56:21;;;;;;;32.08;20.55;;;;;;;;;;5098083;28;20266;-87
2023/04/08 01:58:51;;;;;;;37.65;20.42;;;;;;;;;;5115873;28;20176;-87
2023/04/08 02:01:18;;;;;;;33.63;19.90;;;;;;;;;;5097806;28;20235;-87
2023/04/08 02:03:44;;;;;;;35.55;21.02;;;;;;;;;;5096891;28;20234;-88
2023/04/08 02:06:10;;;;;;;33.28;21.92;;;;;;;;;;5097755;28;20575;-88
2023/04/08 02:08:36;;;;;;;37.58;21.45;;;;;;;;;;5097922;28;20171;-88
2023/04/08 02:11:03;;;;;;;33.97;23.75;;;;;;;;;;5098074;28;20180;-88
2023/04/08 02:13:30;;;;;;;32.33;21.77;;;;;;;;;;5097268;28;20202;-88
2023/04/08 02:16:04;;;;;;;35.17;22.15;;;;;;;;;;5097858;28;20171;-87
2023/04/08 02:18:31;;;;;;;35.33;23.77;;;;;;;;;;5115875;28;20194;-86
2023/04/08 02:21:01;;;;;;;36.72;22.48;;;;;;;;;;5115317;28;20167;-88
2023/04/08 02:23:28;;;;;;;37.95;24.52;;;;;;;;;;5115101;28;20207;-86
2023/04/08 02:25:55;;;;;;;42.03;23.67;;;;;;;;;;5081001;28;20208;-85
2023/04/08 02:28:21;;;;;;;41.88;23.15;;;;;;;;;;5097052;28;20169;-85
2023/04/08 02:30:48;;;;;;;43.22;27.67;;;;;;;;;;5114392;28;20178;-86
2023/04/08 02:33:15;;;;;;;49.53;25.15;;;;;;;;;;5115548;28;20191;-87
2023/04/08 02:35:41;;;;;;;40.90;24.85;;;;;;;;;;5096451;28;20266;-86
2023/04/08 02:38:09;;;;;;;46.00;26.80;;;;;;;;;;5097569;28;20535;-86
2023/04/08 02:40:35;;;;;;;51.83;26.77;;;;;;;;;;5097370;28;20171;-87
2023/04/08 02:43:02;;;;;;;55.00;28.02;;;;;;;;;;5097088;28;20185;-86
2023/04/08 02:45:30;;;;;;;61.42;27.23;;;;;;;;;;5115493;28;20221;-87
2023/04/08 02:47:56;;;;;;;51.05;27.75;;;;;;;;;;5100977;28;20213;-86
2023/04/08 02:50:22;;;;;;;52.67;26.80;;;;;;;;;;5119189;28;20171;-87
2023/04/08 02:52:48;;;;;;;55.50;28.63;;;;;;;;;;5118894;28;20573;-87
2023/04/08 02:55:14;;;;;;;56.90;27.03;;;;;;;;;;5101280;28;20171;-87
2023/04/08 02:57:41;;;;;;;59.00;28.13;;;;;;;;;;5120101;28;20493;-87
2023/04/08 03:00:08;;;;;;;55.65;26.80;;;;;;;;;;5119400;28;20390;-87
2023/04/08 03:02:34;;;;;;;56.58;28.75;;;;;;;;;;5100777;28;20180;-86
2023/04/08 03:05:01;;;;;;;63.10;28.33;;;;;;;;;;5119207;28;20203;-87
2023/04/08 03:07:27;;;;;;;49.65;26.55;;;;;;;;;;5100985;28;20175;-87
2023/04/08 03:09:54;;;;;;;59.22;28.08;;;;;;;;;;5100937;28;20175;-87
2023/04/08 03:12:20;;;;;;;45.22;27.90;;;;;;;;;;5119469;28;20535;-87
2023/04/08 03:14:46;;;;;;;53.55;28.73;;;;;;;;;;5119236;28;20236;-87
2023/04/08 03:17:12;;;;;;;58.67;26.83;;;;;;;;;;5119232;28;20579;-87
2023/04/08 03:19:38;;;;;;;61.77;29.73;;;;;;;;;;5119021;28;20488;-87
2023/04/08 03:22:04;;;;;;;53.23;29.67;;;;;;;;;;5084226;28;20448;-87
2023/04/08 03:24:30;;;;;;;68.95;28.35;;;;;;;;;;5100419;28;20469;-87
2023/04/08 03:26:56;;;;;;;56.77;30.60;;;;;;;;;;5100313;28;20707;-87
2023/04/08 03:29:22;;;;;;;63.33;28.43;;;;;;;;;;5100819;28;20455;-87
2023/04/08 03:31:48;;;;;;;50.83;27.93;;;;;;;;;;5099868;28;20448;-86
2023/04/08 03:34:14;;;;;;;51.20;27.07;;;;;;;;;;5100192;28;20418;-86
2023/04/08 03:36:40;;;;;;;54.17;28.13;;;;;;;;;;5099950;28;20448;-87
2023/04/08 03:39:06;;;;;;;53.73;27.40;;;;;;;;;;5118567;28;20228;-87
2023/04/08 03:41:32;;;;;;;53.47;27.90;;;;;;;;;;5102078;28;20413;-87
2023/04/08 03:43:58;;;;;;;52.97;29.90;;;;;;;;;;5102020;28;20457;-87
2023/04/08 03:46:24;;;;;;;49.80;27.20;;;;;;;;;;5110465;28;20397;-87
2023/04/08 03:48:50;;;;;;;56.73;30.13;;;;;;;;;;5104499;28;20421;-87
2023/04/08 03:51:16;;;;;;;54.93;28.07;;;;;;;;;;5085523;28;20503;-87
2023/04/08 03:53:42;;;;;;;48.20;28.25;;;;;;;;;;5101266;28;20415;-87
2023/04/08 03:56:08;;;;;;;52.53;27.98;;;;;;;;;;5119791;28;20214;-86
2023/04/08 03:58:34;;;;;;;53.50;28.40;;;;;;;;;;5100578;28;20638;-88
2023/04/08 04:01:00;;;;;;;55.88;29.35;;;;;;;;;;5100875;28;20541;-87
2023/04/08 04:03:26;;;;;;;53.83;27.10;;;;;;;;;;5099321;28;20234;-87
2023/04/08 04:05:52;;;;;;;49.03;27.35;;;;;;;;;;5100013;28;20417;-87
2023/04/08 04:08:18;;;;;;;50.15;27.58;;;;;;;;;;5119115;28;20320;-87
2023/04/08 04:10:44;;;;;;;58.17;28.97;;;;;;;;;;5100167;28;20277;-87
2023/04/08 04:13:10;;;;;;;44.47;26.15;;;;;;;;;;5099769;28;20480;-87
2023/04/08 04:15:39;;;;;;;66.38;27.52;;;;;;;;;;5099832;28;20187;-87
2023/04/08 04:18:06;;;;;;;52.70;27.23;;;;;;;;;;5118211;28;20201;-87
2023/04/08 04:20:32;;;;;;;50.85;29.42;;;;;;;;;;5118020;28;20680;-87
2023/04/08 04:22:58;;;;;;;53.92;27.38;;;;;;;;;;5082384;28;20176;-88
2023/04/08 04:25:24;;;;;;;56.80;29.27;;;;;;;;;;5082386;28;20702;-87
2023/04/08 04:27:50;;;;;;;52.22;27.48;;;;;;;;;;5098280;28;20421;-87
2023/04/08 04:30:18;;;;;;;53.97;27.85;;;;;;;;;;5098637;28;20513;-87
2023/04/08 04:32:44;;;;;;;59.92;29.65;;;;;;;;;;5100162;28;20179;-87
2023/04/08 04:35:10;;;;;;;64.03;28.03;;;;;;;;;;5104616;28;20179;-88
2023/04/08 04:37:36;;;;;;;58.78;30.40;;;;;;;;;;5101127;28;20405;-88
2023/04/08 04:40:03;;;;;;;59.33;29.13;;;;;;;;;;5081932;28;20518;-87
2023/04/08 04:42:29;;;;;;;54.45;29.52;;;;;;;;;;5099803;28;20444;-88
2023/04/08 04:44:55;;;;;;;54.95;29.15;;;;;;;;;;5098402;28;20199;-87
2023/04/08 04:47:22;;;;;;;53.28;29.60;;;;;;;;;;5099810;28;20210;-87
2023/04/08 04:49:48;;;;;;;60.00;28.75;;;;;;;;;;5098463;28;20639;-87
2023/04/08 04:52:13;;;;;;;55.63;29.38;;;;;;;;;;5099391;28;20175;-87
2023/04/08 04:54:40;;;;;;;58.33;29.40;;;;;;;;;;5098793;28;20186;-87
2023/04/08 04:57:06;;;;;;;52.38;29.42;;;;;;;;;;5099715;28;20397;-87
2023/04/08 04:59:32;;;;;;;54.80;31.02;;;;;;;;;;5082014;28;20180;-87
2023/04/08 05:01:58;;;;;;;61.73;31.60;;;;;;;;;;5081920;28;20179;-87
2023/04/08 05:04:24;;;;;;;58.80;28.23;;;;;;;;;;5098810;28;20510;-87
2023/04/08 05:06:50;;;;;;;57.58;32.25;;;;;;;;;;5116288;28;20814;-87
2023/04/08 05:09:16;;;;;;;58.75;30.40;;;;;;;;;;5081373;28;20628;-87
2023/04/08 05:11:42;;;;;;;55.55;30.75;;;;;;;;;;5098163;28;20635;-87
2023/04/08 05:14:08;;;;;;;69.07;31.65;;;;;;;;;;5116960;28;20176;-87
2023/04/08 05:16:34;;;;;;;57.28;30.52;;;;;;;;;;5098735;28;20171;-87
2023/04/08 05:19:00;;;;;;;66.68;31.73;;;;;;;;;;5098634;28;20175;-87
2023/04/08 05:21:26;;;;;;;57.65;29.33;;;;;;;;;;5099047;28;20163;-87
2023/04/08 05:23:53;;;;;;;54.08;29.95;;;;;;;;;;5098620;28;20203;-86
2023/04/08 05:26:22;;;;;;;63.28;31.02;;;;;;;;;;5098905;28;20216;-87
2023/04/08 05:28:49;;;;;;;59.38;32.00;;;;;;;;;;5097619;28;20175;-87
2023/04/08 05:31:16;;;;;;;64.40;31.00;;;;;;;;;;5116707;28;20167;-87
2023/04/08 05:33:42;;;;;;;56.65;28.83;;;;;;;;;;5115969;28;20176;-88
2023/04/08 05:36:08;;;;;;;85.65;34.38;;;;;;;;;;5098256;28;20278;-87
2023/04/08 05:38:34;;;;;;;62.10;31.35;;;;;;;;;;5098075;28;20576;-87
2023/04/08 05:41:00;;;;;;;58.97;32.58;;;;;;;;;;5081392;28;20559;-87
2023/04/08 05:43:26;;;;;;;76.53;32.63;;;;;;;;;;5116665;28;20251;-87
2023/04/08 05:45:52;;;;;;;64.85;32.63;;;;;;;;;;5081056;28;20175;-87
2023/04/08 05:48:18;;;;;;;66.22;33.88;;;;;;;;;;5116009;28;20184;-87
2023/04/08 05:50:45;;;;;;;67.30;33.70;;;;;;;;;;5080667;28;20180;-87
2023/04/08 05:53:11;;;;;;;72.50;32.08;;;;;;;;;;5097939;28;20236;-87
2023/04/08 05:55:37;;;;;;;74.35;34.38;;;;;;;;;;5080901;28;20716;-87
2023/04/08 05:58:03;;;;;;;91.07;33.97;;;;;;;;;;5097637;28;20198;-88
2023/04/08 06:00:29;;;;;;;74.88;31.30;;;;;;;;;;5097580;28;20179;-88
2023/04/08 06:02:55;;;;;;;88.40;34.72;;;;;;;;;;5116198;28;20223;-87
2023/04/08 06:05:21;;;;;;;77.20;34.53;;;;;;;;;;5097781;28;20264;-88
2023/04/08 06:07:47;;;;;;;75.05;33.25;;;;;;;;;;5097631;28;20299;-88
2023/04/08 06:10:13;;;;;;;70.85;33.55;;;;;;;;;;5080644;28;20184;-88
2023/04/08 06:12:39;;;;;;;96.95;39.90;;;;;;;;;;5097235;28;20209;-88
2023/04/08 06:15:09;;;;;;;93.38;37.63;;;;;;;;;;5096972;28;20182;-88
2023/04/08 06:17:38;;;;;;;69.55;32.92;;;;;;;;;;5116386;28;20254;-87
2023/04/08 06:20:10;;;;;;;74.95;35.40;;;;;;;;;;5098748;28;20274;-88
2023/04/08 06:22:36;;;;;;;84.72;32.35;;;;;;;;;;5085096;28;20233;-88
2023/04/08 06:25:02;;;;;;;83.05;34.65;;;;;;;;;;5119530;28;20195;-88
2023/04/08 06:27:29;;;;;;;82.95;37.03;;;;;;;;;;5119829;28;20171;-88
2023/04/08 06:29:55;;;;;;;106.95;36.10;;;;;;;;;;5101410;28;20185;-88
2023/04/08 06:32:21;;;;;;;91.95;37.17;;;;;;;;;;5084512;28;20602;-88
2023/04/08 06:34:48;;;;;;;114.97;35.70;;;;;;;;;;5100772;28;20282;-88
2023/04/08 06:37:14;;;;;;;93.47;36.38;;;;;;;;;;5119095;28;20164;-88
2023/04/08 06:39:40;;;;;;;93.00;36.47;;;;;;;;;;5118803;28;20254;-88
2023/04/08 06:42:06;;;;;;;79.28;33.92;;;;;;;;;;5118724;28;20170;-88
2023/04/08 06:44:32;;;;;;;90.72;35.65;;;;;;;;;;5119083;28;20215;-87
2023/04/08 06:46:58;;;;;;;97.68;37.33;;;;;;;;;;5118832;28;20174;-88
2023/04/08 06:49:25;;;;;;;99.93;38.13;;;;;;;;;;5110050;28;20202;-88
2023/04/08 06:51:51;;;;;;;91.57;35.72;;;;;;;;;;5120668;28;20199;-88
2023/04/08 06:54:18;;;;;;;93.28;36.00;;;;;;;;;;5103433;28;20187;-88
2023/04/08 06:56:44;;;;;;;91.60;36.90;;;;;;;;;;5120943;28;20163;-88
2023/04/08 06:59:10;;;;;;;94.70;37.30;;;;;;;;;;5101248;28;20193;-88
2023/04/08 07:01:36;;;;;;;87.80;35.33;;;;;;;;;;5118714;28;20175;-88
2023/04/08 07:04:02;;;;;;;82.45;34.65;;;;;;;;;;5100329;28;20234;-88
2023/04/08 07:06:28;;;;;;;89.70;37.28;;;;;;;;;;5101364;28;20179;-88
2023/04/08 07:08:54;;;;;;;97.05;38.38;;;;;;;;;;5101922;28;20191;-88
2023/04/08 07:11:20;;;;;;;107.90;38.28;;;;;;;;;;5101642;28;20184;-88
2023/04/08 07:13:46;;;;;;;89.97;36.13;;;;;;;;;;5101045;28;20172;-88
2023/04/08 07:16:12;;;;;;;90.35;36.88;;;;;;;;;;5119133;28;20532;-88
2023/04/08 07:18:40;;;;;;;95.07;39.95;;;;;;;;;;5100942;28;20184;-88
2023/04/08 07:21:06;;;;;;;86.68;36.38;;;;;;;;;;5098843;28;20179;-88
2023/04/08 07:23:32;;;;;;;98.25;38.90;;;;;;;;;;5117931;28;20183;-87
2023/04/08 07:26:02;;;;;;;91.20;37.22;;;;;;;;;;5100617;28;20202;-88
2023/04/08 07:28:28;;;;;;;86.43;36.50;;;;;;;;;;5100916;28;20626;-88
2023/04/08 07:30:54;;;;;;;95.33;37.17;;;;;;;;;;5100459;28;20175;-87
2023/04/08 07:33:20;;;;;;;77.03;36.35;;;;;;;;;;5099919;28;20500;-88
2023/04/08 07:35:46;;;;;;;77.37;36.23;;;;;;;;;;5100767;28;20312;-88
2023/04/08 07:38:12;;;;;;;79.40;37.33;;;;;;;;;;5099756;28;20401;-88
2023/04/08 07:40:38;;;;;;;72.63;36.10;;;;;;;;;;5118583;28;20402;-88
2023/04/08 07:43:04;;;;;;;65.57;34.03;;;;;;;;;;5083039;28;20180;-88
2023/04/08 07:45:30;;;;;;;69.13;36.00;;;;;;;;;;5099853;28;20556;-88
2023/04/08 07:47:56;;;;;;;68.03;33.87;;;;;;;;;;5083422;28;20275;-88
2023/04/08 07:50:22;;;;;;;65.70;36.10;;;;;;;;;;5100317;28;20468;-88
2023/04/08 07:52:48;;;;;;;59.90;32.55;;;;;;;;;;5082461;28;20413;-87
2023/04/08 07:55:14;;;;;;;64.53;33.13;;;;;;;;;;5101540;28;20715;-89
2023/04/08 07:57:40;;;;;;;60.75;33.70;;;;;;;;;;5088026;28;20411;-88
2023/04/08 08:00:06;;;;;;;69.10;35.30;;;;;;;;;;5121411;28;20522;-88
2023/04/08 08:02:33;;;;;;;65.28;36.80;;;;;;;;;;5104094;28;20440;-88
2023/04/08 08:05:02;;;;;;;57.30;33.97;;;;;;;;;;5103341;28;20264;-88
2023/04/08 08:07:28;;;;;;;60.78;33.85;;;;;;;;;;5086624;28;20205;-88
2023/04/08 08:09:54;;;;;;;65.57;34.88;;;;;;;;;;5103162;28;20171;-88
2023/04/08 08:12:20;;;;;;;56.90;33.60;;;;;;;;;;5087006;28;20184;-88
2023/04/08 08:14:46;;;;;;;55.73;31.73;;;;;;;;;;5103249;28;20404;-87
2023/04/08 08:17:12;;;;;;;59.10;32.57;;;;;;;;;;5121078;28;20406;-88
2023/04/08 08:19:38;;;;;;;59.80;33.03;;;;;;;;;;5103322;28;20405;-87
2023/04/08 08:22:04;;;;;;;51.30;30.77;;;;;;;;;;5085516;28;20417;-87
2023/04/08 08:24:30;;;;;;;51.70;31.67;;;;;;;;;;5102183;28;20492;-87
2023/04/08 08:26:56;;;;;;;45.35;31.90;;;;;;;;;;5085968;28;20416;-87
2023/04/08 08:29:22;;;;;;;47.58;29.88;;;;;;;;;;5102032;28;20214;-88
2023/04/08 08:31:48;;;;;;;49.27;33.40;;;;;;;;;;5085550;28;20175;-87
2023/04/08 08:34:15;;;;;;;43.05;30.25;;;;;;;;;;5120453;28;20806;-85
2023/04/08 08:36:41;;;;;;;52.25;31.45;;;;;;;;;;5120393;28;20533;-87
2023/04/08 08:39:07;;;;;;;47.17;31.70;;;;;;;;;;5102781;28;20224;-87
2023/04/08 08:41:35;;;;;;;44.10;28.77;;;;;;;;;;5102820;28;20405;-87
2023/04/08 08:44:02;;;;;;;38.15;27.60;;;;;;;;;;5119111;28;20529;-87
2023/04/08 08:46:28;;;;;;;41.37;27.77;;;;;;;;;;5102117;28;20603;-86
2023/04/08 08:48:54;;;;;;;38.03;26.33;;;;;;;;;;5101622;28;20870;-87
2023/04/08 08:51:21;;;;;;;37.70;26.17;;;;;;;;;;5083988;28;20190;-87
2023/04/08 08:53:47;;;;;;;38.78;28.58;;;;;;;;;;5102037;28;20191;-86
2023/04/08 08:56:13;;;;;;;38.47;27.30;;;;;;;;;;5119856;28;20242;-86
2023/04/08 08:58:39;;;;;;;41.53;26.53;;;;;;;;;;5100674;28;20502;-86
2023/04/08 09:01:23;;;;;;;40.17;27.30;;;;;;;;;;5101339;28;20425;-86
2023/04/08 09:04:06;;;;;;;43.50;28.67;;;;;;;;;;5100588;28;20239;-86
2023/04/08 09:06:32;;;;;;;47.83;33.65;;;;;;;;;;5100958;28;20179;-87
2023/04/08 09:08:58;;;;;;;39.60;27.45;;;;;;;;;;5119837;28;20171;-87
2023/04/08 09:11:24;;;;;;;45.17;29.70;;;;;;;;;;5102414;28;20197;-87
2023/04/08 09:13:50;;;;;;;45.03;29.75;;;;;;;;;;5102133;28;20428;-87
2023/04/08 09:16:17;;;;;;;45.50;30.87;;;;;;;;;;5101198;28;20179;-88
2023/04/08 09:18:44;;;;;;;43.25;29.35;;;;;;;;;;5101253;28;20559;-87
2023/04/08 09:21:11;;;;;;;47.53;30.35;;;;;;;;;;5083618;28;20183;-88
2023/04/08 09:23:43;;;;;;;48.58;30.85;;;;;;;;;;5119451;28;20191;-87
2023/04/08 09:26:09;;;;;;;53.40;31.83;;;;;;;;;;5101297;28;20175;-88
2023/04/08 09:28:35;;;;;;;52.80;34.37;;;;;;;;;;5100685;28;20178;-87
2023/04/08 09:31:09;;;;;;;52.67;34.42;;;;;;;;;;5118424;28;20393;-88
2023/04/08 09:33:35;;;;;;;51.22;35.47;;;;;;;;;;5099766;28;20179;-87
2023/04/08 09:36:01;;;;;;;57.93;34.93;;;;;;;;;;5099958;28;20283;-87
2023/04/08 09:38:27;;;;;;;54.97;37.07;;;;;;;;;;5082980;28;20418;-88
2023/04/08 09:40:53;;;;;;;58.40;37.57;;;;;;;;;;5099744;28;20813;-88
2023/04/08 09:43:23;;;;;;;61.70;38.37;;;;;;;;;;5099538;28;20422;-87
2023/04/08 09:45:50;;;;;;;62.60;38.30;;;;;;;;;;5099207;28;20437;-88
2023/04/08 09:48:24;;;;;;;52.07;33.97;;;;;;;;;;5098285;28;20401;-87
2023/04/08 09:50:51;;;;;;;55.73;35.90;;;;;;;;;;5098082;28;20421;-88
2023/04/08 09:53:25;;;;;;;66.03;41.67;;;;;;;;;;5097103;28;20994;-86
2023/04/08 09:55:53;;;;;;;63.92;41.20;;;;;;;;;;5105617;28;20413;-87
2023/04/08 09:58:23;;;;;;;67.50;41.63;;;;;;;;;;5121758;28;20171;-87
2023/04/08 10:00:50;;;;;;;68.17;44.90;;;;;;;;;;5104359;28;20251;-87
2023/04/08 10:03:26;;;;;;;65.88;40.97;;;;;;;;;;5100068;28;20469;-87
2023/04/08 10:05:55;;;;;;;67.07;44.28;;;;;;;;;;5100013;28;20207;-87
2023/04/08 10:08:22;;;;;;;65.25;42.03;;;;;;;;;;5100231;28;20247;-86
2023/04/08 10:10:50;;;;;;;58.95;38.83;;;;;;;;;;5098576;28;20287;-87
2023/04/08 10:13:16;;;;;;;56.95;38.65;;;;;;;;;;5098188;28;20604;-87
2023/04/08 10:15:48;;;;;;;55.73;36.33;;;;;;;;;;5100379;28;20534;-88
2023/04/08 10:18:17;;;;;;;54.70;37.20;;;;;;;;;;5098765;28;20417;-88
2023/04/08 10:20:44;;;;;;;56.63;37.07;;;;;;;;;;5096730;28;20932;-88
2023/04/08 10:23:12;;;;;;;55.77;35.10;;;;;;;;;;5096846;28;20414;-89
2023/04/08 10:25:42;;;;;;;53.57;36.40;;;;;;;;;;5095306;28;20461;-88
2023/04/08 10:28:11;;;;;;;52.13;35.87;;;;;;;;;;5098469;28;20444;-88
2023/04/08 10:31:05;;;;;;;54.80;36.60;;;;;;;;;;5086829;28;20834;-87
2023/04/08 10:33:32;;;;;;;52.00;34.87;;;;;;;;;;5076389;28;20426;-87
2023/04/08 10:36:08;;;;;;;52.13;38.67;;;;;;;;;;5079039;28;20435;-88
2023/04/08 10:38:35;;;;;;;51.77;36.27;;;;;;;;;;5077829;28;20435;-87
2023/04/08 10:41:01;;;;;;;53.20;36.70;;;;;;;;;;5057370;28;20495;-87
2023/04/08 10:43:34;;;;;;;53.00;35.60;;;;;;;;;;5054755;28;20416;-87
2023/04/08 10:46:00;;;;;;;46.93;34.47;;;;;;;;;;5053813;28;20408;-87
2023/04/08 10:48:29;;;;;;;45.97;32.80;;;;;;;;;;5072429;28;20415;-87
2023/04/08 10:50:56;;;;;;;40.70;29.53;;;;;;;;;;5074895;28;20468;-87
2023/04/08 10:53:32;;;;;;;44.43;30.67;;;;;;;;;;5077056;28;20480;-87
2023/04/08 10:56:13;;;;;;;43.27;32.30;;;;;;;;;;5077217;28;20438;-86
2023/04/08 10:58:49;;;;;;;46.77;32.30;;;;;;;;;;5078268;28;20411;-86
2023/04/08 11:01:15;;;;;;;45.13;31.93;;;;;;;;;;5092324;28;20563;-87
2023/04/08 11:03:42;;;;;;;39.40;28.90;;;;;;;;;;5118302;28;20464;-86
2023/04/08 11:06:08;;;;;;;42.17;29.80;;;;;;;;;;5104977;28;20429;-86
2023/04/08 11:08:35;;;;;;;47.30;31.60;;;;;;;;;;5122411;28;20905;-87
2023/04/08 11:11:02;;;;;;;33.67;24.80;;;;;;;;;;5104701;28;20405;-87
2023/04/08 11:13:29;;;;;;;24.10;19.50;;;;;;;;;;5124929;28;20403;-87
2023/04/08 11:15:56;;;;;;;23.73;20.20;;;;;;;;;;5104106;28;20571;-87
2023/04/08 11:18:22;;;;;;;20.77;18.33;;;;;;;;;;5122825;28;20398;-87
2023/04/08 11:20:52;;;;;;;18.60;15.77;;;;;;;;;;5087605;28;20892;-87
2023/04/08 11:23:18;;;;;;;17.13;15.33;;;;;;;;;;5103235;28;20982;-87
2023/04/08 11:25:45;;;;;;;18.00;16.20;;;;;;;;;;5103813;28;20499;-86
2023/04/08 11:28:12;;;;;;;16.40;14.23;;;;;;;;;;5103672;28;20508;-87
2023/04/08 11:30:39;;;;;;;16.93;15.13;;;;;;;;;;5087262;28;20409;-87
2023/04/08 11:33:05;;;;;;;15.40;13.70;;;;;;;;;;5121560;28;20455;-87
2023/04/08 11:35:31;;;;;;;15.97;13.00;;;;;;;;;;5100072;28;20405;-87
2023/04/08 11:37:58;;;;;;;15.37;13.57;;;;;;;;;;5118043;28;20401;-86
2023/04/08 11:40:25;;;;;;;16.70;14.73;;;;;;;;;;5100006;28;20410;-86
2023/04/08 11:42:51;;;;;;;16.80;14.40;;;;;;;;;;5100040;28;20901;-86
2023/04/08 11:45:18;;;;;;;17.03;14.90;;;;;;;;;;5098960;28;20465;-86
2023/04/08 11:47:46;;;;;;;16.87;14.80;;;;;;;;;;5117512;28;20409;-86
2023/04/08 11:50:12;;;;;;;16.93;14.20;;;;;;;;;;5117299;28;20500;-87
2023/04/08 11:52:50;;;;;;;16.80;15.00;;;;;;;;;;5117569;28;20398;-87
2023/04/08 11:55:27;;;;;;;15.93;14.33;;;;;;;;;;5098801;28;20413;-86
2023/04/08 11:57:53;;;;;;;22.33;17.33;;;;;;;;;;5098759;28;20432;-86
2023/04/08 12:00:20;;;;;;;17.97;16.10;;;;;;;;;;5081971;28;20512;-86
2023/04/08 12:02:47;;;;;;;17.83;15.93;;;;;;;;;;5098808;28;20425;-86
2023/04/08 12:05:14;;;;;;;20.67;16.43;;;;;;;;;;5116140;28;20461;-86
2023/04/08 12:07:41;;;;;;;18.80;16.87;;;;;;;;;;5098369;28;20402;-86
2023/04/08 12:10:07;;;;;;;25.70;18.10;;;;;;;;;;5116968;28;20538;-86
2023/04/08 12:12:33;;;;;;;18.70;15.83;;;;;;;;;;5098204;28;20441;-85
2023/04/08 12:14:59;;;;;;;22.33;19.57;;;;;;;;;;5098575;28;20422;-85
2023/04/08 12:17:25;;;;;;;24.90;21.40;;;;;;;;;;5081861;28;20414;-85
2023/04/08 12:19:51;;;;;;;24.53;20.73;;;;;;;;;;5097906;28;20757;-86
2023/04/08 12:22:17;;;;;;;23.07;20.30;;;;;;;;;;5109365;28;20392;-86
2023/04/08 12:24:43;;;;;;;23.20;18.40;;;;;;;;;;5116794;28;20828;-86
2023/04/08 12:27:09;;;;;;;21.60;18.50;;;;;;;;;;5095723;28;20418;-87
2023/04/08 12:29:35;;;;;;;20.77;18.37;;;;;;;;;;5117621;28;20375;-86
2023/04/08 12:32:01;;;;;;;26.73;20.13;;;;;;;;;;5098996;28;20402;-85
2023/04/08 12:34:27;;;;;;;25.43;21.77;;;;;;;;;;5097806;28;20456;-86
2023/04/08 12:36:54;;;;;;;25.13;22.43;;;;;;;;;;5098731;28;20405;-86
2023/04/08 12:39:21;;;;;;;29.50;22.50;;;;;;;;;;5116076;28;20410;-86
2023/04/08 12:41:47;;;;;;;26.73;21.90;;;;;;;;;;5115926;28;20393;-86
2023/04/08 12:44:13;;;;;;;27.17;20.83;;;;;;;;;;5115171;28;20437;-86
2023/04/08 12:46:39;;;;;;;24.17;21.60;;;;;;;;;;5097269;28;20402;-87
2023/04/08 12:49:05;;;;;;;26.30;23.13;;;;;;;;;;5115717;28;20405;-88
2023/04/08 12:51:31;;;;;;;28.50;23.73;;;;;;;;;;5080813;28;20439;-86
2023/04/08 12:53:59;;;;;;;28.53;23.57;;;;;;;;;;5116048;28;20408;-87
2023/04/08 12:56:25;;;;;;;28.30;22.20;;;;;;;;;;5098810;28;20762;-87
2023/04/08 12:58:51;;;;;;;28.17;22.90;;;;;;;;;;5129183;28;20417;-87
2023/04/08 13:01:17;;;;;;;29.63;22.73;;;;;;;;;;5129864;28;20393;-87
2023/04/08 13:03:43;;;;;;;32.17;22.93;;;;;;;;;;5099591;28;20468;-86
2023/04/08 13:06:09;;;;;;;31.60;23.27;;;;;;;;;;5088977;28;20425;-87
2023/04/08 13:08:35;;;;;;;31.83;24.93;;;;;;;;;;5090137;28;20405;-87
2023/04/08 13:11:01;;;;;;;26.60;23.23;;;;;;;;;;5099320;28;20415;-87
2023/04/08 13:13:27;;;;;;;30.47;25.53;;;;;;;;;;5100571;28;20841;-88
2023/04/08 13:15:53;;;;;;;35.67;26.47;;;;;;;;;;5083855;28;20926;-87
2023/04/08 13:18:19;;;;;;;34.13;24.03;;;;;;;;;;5085635;28;20422;-87
2023/04/08 13:20:45;;;;;;;38.73;27.67;;;;;;;;;;5108364;28;20405;-87
2023/04/08 13:23:13;;;;;;;37.10;26.83;;;;;;;;;;5106145;28;20492;-87
2023/04/08 13:25:39;;;;;;;36.97;26.43;;;;;;;;;;5109093;28;20546;-88
2023/04/08 13:28:05;;;;;;;37.57;26.80;;;;;;;;;;5105589;28;20441;-87
2023/04/08 13:30:31;;;;;;;36.67;26.03;;;;;;;;;;5104119;28;20421;-86
2023/04/08 13:32:57;;;;;;;44.50;28.27;;;;;;;;;;5090841;28;20421;-88
2023/04/08 13:35:23;;;;;;;39.93;28.73;;;;;;;;;;5101300;28;20889;-87
2023/04/08 13:37:49;;;;;;;38.63;27.07;;;;;;;;;;5099530;28;20410;-86
2023/04/08 13:40:16;;;;;;;39.80;25.23;;;;;;;;;;5099352;28;20421;-87
2023/04/08 13:42:42;;;;;;;37.60;25.47;;;;;;;;;;5117807;28;20401;-86
2023/04/08 13:45:08;;;;;;;34.10;24.77;;;;;;;;;;5117212;28;20538;-86
2023/04/08 13:47:34;;;;;;;32.00;24.20;;;;;;;;;;5119545;28;20401;-87
2023/04/08 13:50:00;;;;;;;37.50;26.20;;;;;;;;;;5121639;28;20402;-86
2023/04/08 13:52:26;;;;;;;38.63;26.87;;;;;;;;;;5084204;28;20421;-86
2023/04/08 13:54:52;;;;;;;38.27;25.47;;;;;;;;;;5097468;28;20444;-85
2023/04/08 13:57:18;;;;;;;37.73;26.77;;;;;;;;;;5097366;28;20981;-85
2023/04/08 13:59:45;;;;;;;36.07;25.07;;;;;;;;;;5115821;28;20439;-85
2023/04/08 14:02:11;;;;;;;42.80;27.83;;;;;;;;;;5096528;28;20936;-86
2023/04/08 14:04:38;;;;;;;43.37;26.10;;;;;;;;;;5115546;28;20477;-86
2023/04/08 14:07:04;;;;;;;35.30;25.67;;;;;;;;;;5096934;28;20432;-86
2023/04/08 14:09:30;;;;;;;33.13;24.33;;;;;;;;;;5080238;28;20463;-86
2023/04/08 14:11:57;;;;;;;32.13;23.17;;;;;;;;;;5099405;28;20401;-86
2023/04/08 14:14:23;;;;;;;27.73;19.30;;;;;;;;;;5096956;28;20417;-87